Huvudsida
METAR-TAF:

METAR-TAF

Flygplatser :

Esbjergs flygplats

Esbjerg, Danmark

latitud: 55-32N, longitud: 008-34E, höjd: 30 m

Aktuellt väderrapport

Denna rapport gjordes för 13 minuter sedan, klockan 09:50 UTC
Vind 11 kt från väst/sydväst
Temperatur 8°C
Fuktighet 93%
Tryck 1026 hPa
Sikt: 8000 m

METAR: EKEB 200950Z AUTO 25011KT 8000 OVC005/// 08/07 Q1026

Tid: 11:03 (10:03 UTC)

Väderprognos

Denna rapport gjordes för 1 timme och 33 minuter sedan, klockan 08:30 UTC
Prognos gäller från 20 kl. 09 UTC till 20 kl. 18 UTC
Vind 10 kt från väst/sydväst
Sikt: 6000 m
Brutna moln på en höjd av 600 ft
Temporärt
från 20 kl. 09 UTC till 20 kl. 11 UTC
Sikt: 3000 m
Brutna moln på en höjd av 400 ft
fuktdis
Blir
från 20 kl. 11 UTC till 20 kl. 13 UTC
Brutna moln på en höjd av 1000 ft
Blir
från 20 kl. 13 UTC till 20 kl. 15 UTC
Brutna moln på en höjd av 2000 ft

TAF: EKEB 200830Z 2009/2018 25010KT 6000 BKN006 TEMPO 2009/2011 3000 BR BKN004 BECMG 2011/2013 BKN010 BECMG 2013/2015 BKN020

Aktuella väderrapporter och prognoser från 4000 flygplatser (METAR- och TAF-rapporter).

De tillgängliga stationerna syns som gula och röda prickar på kartan.

För musen över prickarna för att se namnen på stationerna.

Klicka sedan för att få väderrapporter och prognoser.

För att ändra kartan: Klicka på de gröna knapparna med ett svart kors på för att zooma in; den gröna knappen med ett streck på för att zooma ut; eller på de gröna pilarna för angränsande kartor.


METAR-TAF: